createdAt,value
2019-03-17T00:00:47.983Z,43.25
2019-03-17T00:03:18.280Z,43.12
2019-03-17T00:05:48.620Z,43.18
2019-03-17T00:08:19.016Z,43.23
2019-03-17T00:10:49.606Z,43.17
2019-03-17T00:13:22.906Z,42.98
2019-03-17T00:15:53.254Z,43.12
2019-03-17T00:18:23.589Z,43.21
2019-03-17T00:20:53.905Z,43.12
2019-03-17T00:23:24.205Z,42.97
2019-03-17T00:25:54.918Z,43.06
2019-03-17T00:28:25.158Z,42.93
2019-03-17T00:30:55.452Z,42.97
2019-03-17T00:33:25.774Z,43.04
2019-03-17T00:35:56.003Z,42.90
2019-03-17T00:38:26.391Z,42.88
2019-03-17T00:40:57.788Z,42.95
2019-03-17T00:43:28.192Z,42.99
2019-03-17T00:45:58.573Z,42.96
2019-03-17T00:48:32.534Z,42.84
2019-03-17T00:51:02.770Z,42.88
2019-03-17T00:53:33.071Z,42.87
2019-03-17T00:56:03.347Z,42.99
2019-03-17T00:58:33.734Z,42.85
2019-03-17T01:01:04.120Z,42.85
2019-03-17T01:03:34.589Z,42.78
2019-03-17T01:06:04.985Z,42.80
2019-03-17T01:08:35.324Z,42.89
2019-03-17T01:11:05.727Z,42.59
2019-03-17T01:13:36.071Z,42.79
2019-03-17T01:16:06.447Z,42.74
2019-03-17T01:18:36.812Z,42.79
2019-03-17T01:21:07.195Z,42.75
2019-03-17T01:23:37.532Z,42.67
2019-03-17T01:26:07.903Z,42.70
2019-03-17T01:28:38.137Z,42.83
2019-03-17T01:31:08.450Z,42.94
2019-03-17T01:33:38.785Z,42.95
2019-03-17T01:36:08.879Z,42.91
2019-03-17T01:38:39.834Z,42.85
2019-03-17T01:41:10.146Z,42.82
2019-03-17T01:43:40.578Z,42.90
2019-03-17T01:46:10.815Z,42.72
2019-03-17T01:48:41.139Z,42.93
2019-03-17T01:51:11.410Z,42.75
2019-03-17T01:53:41.670Z,42.87
2019-03-17T01:56:12.093Z,42.88
2019-03-17T01:58:42.422Z,42.79
2019-03-17T02:01:12.822Z,42.73
2019-03-17T02:03:43.188Z,42.65
2019-03-17T02:06:13.443Z,42.61
2019-03-17T02:08:44.696Z,42.54
2019-03-17T02:11:15.030Z,42.39
2019-03-17T02:13:45.346Z,42.36
2019-03-17T02:16:15.747Z,42.53
2019-03-17T02:18:46.116Z,42.68
2019-03-17T02:21:16.355Z,42.66
2019-03-17T02:23:46.686Z,42.73
2019-03-17T02:26:17.003Z,42.80
2019-03-17T02:28:47.385Z,42.58
2019-03-17T02:31:17.859Z,42.74
2019-03-17T02:33:48.550Z,42.75
2019-03-17T02:36:18.938Z,42.72
2019-03-17T02:38:49.299Z,42.66
2019-03-17T02:41:21.268Z,42.74
2019-03-17T02:43:51.583Z,42.64
2019-03-17T02:46:21.857Z,42.40
2019-03-17T02:48:52.210Z,42.47
2019-03-17T02:51:22.466Z,42.54
2019-03-17T02:53:52.827Z,42.66
2019-03-17T02:56:23.135Z,42.64
2019-03-17T02:58:53.422Z,42.51
2019-03-17T03:01:23.682Z,42.39
2019-03-17T03:03:54.053Z,42.52
2019-03-17T03:06:24.420Z,42.56
2019-03-17T03:08:54.657Z,42.43
2019-03-17T03:11:25.027Z,42.39
2019-03-17T03:13:55.284Z,42.32
2019-03-17T03:16:26.741Z,42.14
2019-03-17T03:18:57.104Z,42.16
2019-03-17T03:21:27.460Z,42.15
2019-03-17T03:23:57.780Z,42.27
2019-03-17T03:26:28.033Z,42.28
2019-03-17T03:28:58.363Z,42.27
2019-03-17T03:31:28.705Z,42.34
2019-03-17T03:33:59.028Z,42.50
2019-03-17T03:36:31.407Z,42.35
2019-03-17T03:39:01.769Z,42.13
2019-03-17T03:41:33.201Z,42.39
2019-03-17T03:44:05.411Z,42.49
2019-03-17T03:46:35.701Z,42.34
2019-03-17T03:49:06.151Z,42.35
2019-03-17T03:51:36.544Z,42.37
2019-03-17T03:54:06.802Z,42.18
2019-03-17T03:56:37.119Z,42.28
2019-03-17T03:59:07.366Z,42.29
2019-03-17T04:01:37.682Z,42.38
2019-03-17T04:04:08.011Z,42.07
2019-03-17T04:06:38.361Z,42.11
2019-03-17T04:09:08.986Z,41.64
2019-03-17T04:11:39.212Z,41.49
2019-03-17T04:14:09.553Z,41.52
2019-03-17T04:16:39.875Z,41.66
2019-03-17T04:19:10.246Z,41.61
2019-03-17T04:21:40.591Z,41.78
2019-03-17T04:24:12.247Z,41.50
2019-03-17T04:26:42.578Z,41.63
2019-03-17T04:29:15.826Z,41.54
2019-03-17T04:31:46.138Z,41.46
2019-03-17T04:34:16.411Z,41.60
2019-03-17T04:36:47.664Z,41.48
2019-03-17T04:39:17.976Z,41.49
2019-03-17T04:41:48.318Z,41.28
2019-03-17T04:44:21.373Z,41.36
2019-03-17T04:46:52.203Z,41.27
2019-03-17T04:49:22.510Z,41.46
2019-03-17T04:51:52.989Z,41.31
2019-03-17T04:54:23.391Z,41.35
2019-03-17T04:56:53.684Z,41.21
2019-03-17T04:59:24.118Z,41.25
2019-03-17T05:01:55.578Z,41.42
2019-03-17T05:04:25.860Z,41.30
2019-03-17T05:06:56.179Z,41.18
2019-03-17T05:09:26.764Z,41.11
2019-03-17T05:11:57.021Z,41.17
2019-03-17T05:14:27.533Z,41.31
2019-03-17T05:16:57.842Z,41.40
2019-03-17T05:19:28.118Z,41.29
2019-03-17T05:21:58.471Z,41.42
2019-03-17T05:24:28.830Z,41.53
2019-03-17T05:26:59.134Z,41.39
2019-03-17T05:29:29.947Z,41.53
2019-03-17T05:32:00.296Z,41.26
2019-03-17T05:34:30.723Z,41.31
2019-03-17T05:37:06.590Z,41.41
2019-03-17T05:39:34.783Z,41.36
2019-03-17T05:42:05.121Z,41.42
2019-03-17T05:44:35.429Z,41.45
2019-03-17T05:47:05.699Z,41.36
2019-03-17T05:49:37.054Z,41.28
2019-03-17T05:52:07.561Z,41.54
2019-03-17T05:54:37.895Z,41.24
2019-03-17T05:57:08.175Z,41.24
2019-03-17T05:59:38.412Z,41.19
2019-03-17T06:02:08.732Z,41.14
2019-03-17T06:04:38.996Z,41.06
2019-03-17T06:07:18.558Z,41.21
2019-03-17T06:09:41.269Z,41.21
2019-03-17T06:12:11.498Z,41.15
2019-03-17T06:14:41.795Z,41.01
2019-03-17T06:17:12.036Z,41.17
2019-03-17T06:19:42.321Z,40.92
2019-03-17T06:22:12.594Z,40.84
2019-03-17T06:24:43.025Z,40.90
2019-03-17T06:27:13.286Z,41.01
2019-03-17T06:29:43.648Z,40.96
2019-03-17T06:32:13.890Z,40.96
2019-03-17T06:34:44.611Z,40.94
2019-03-17T06:37:15.213Z,40.78
2019-03-17T06:39:45.489Z,40.90
2019-03-17T06:42:15.818Z,41.00
2019-03-17T06:44:46.221Z,40.68
2019-03-17T06:47:16.492Z,40.67
2019-03-17T06:49:46.816Z,40.78
2019-03-17T06:52:17.178Z,40.69
2019-03-17T06:54:47.571Z,40.71
2019-03-17T06:57:18.093Z,40.73
2019-03-17T06:59:48.481Z,40.60
2019-03-17T07:02:19.206Z,40.29
2019-03-17T07:04:49.503Z,40.03
2019-03-17T07:07:19.821Z,39.91
2019-03-17T07:09:50.173Z,40.22
2019-03-17T07:12:20.448Z,39.71
2019-03-17T07:14:50.703Z,40.09
2019-03-17T07:17:21.028Z,39.92
2019-03-17T07:19:51.377Z,39.64
2019-03-17T07:22:21.718Z,39.78
2019-03-17T07:24:52.007Z,39.91
2019-03-17T07:27:23.603Z,39.75
2019-03-17T07:29:53.971Z,39.92
2019-03-17T07:32:24.306Z,40.73
2019-03-17T07:34:55.648Z,40.87
2019-03-17T07:37:25.984Z,40.65
2019-03-17T07:39:56.233Z,40.02
2019-03-17T07:42:26.608Z,40.58
2019-03-17T07:44:57.004Z,40.58
2019-03-17T07:47:27.313Z,40.70
2019-03-17T07:49:57.716Z,40.86
2019-03-17T07:52:28.081Z,40.86
2019-03-17T07:54:59.396Z,40.90
2019-03-17T07:57:30.125Z,40.80
2019-03-17T08:00:00.423Z,40.80
2019-03-17T08:02:31.178Z,41.01
2019-03-17T08:05:01.887Z,40.38
2019-03-17T08:07:32.202Z,40.55
2019-03-17T08:10:02.507Z,40.62
2019-03-17T08:12:34.094Z,40.66
2019-03-17T08:15:04.448Z,40.47
2019-03-17T08:17:35.930Z,40.56
2019-03-17T08:20:06.360Z,40.28
2019-03-17T08:22:36.870Z,39.34
2019-03-17T08:25:07.572Z,39.70
2019-03-17T08:27:37.859Z,39.85
2019-03-17T08:30:10.187Z,39.34
2019-03-17T08:32:41.735Z,39.80
2019-03-17T08:35:12.325Z,39.39
2019-03-17T08:37:42.909Z,39.63
2019-03-17T08:40:14.831Z,39.80
2019-03-17T08:42:45.316Z,39.92
2019-03-17T08:45:16.697Z,39.83
2019-03-17T08:47:57.101Z,39.91
2019-03-17T08:50:19.482Z,39.91
2019-03-17T08:52:49.778Z,40.05
2019-03-17T08:55:20.134Z,39.83
2019-03-17T08:57:50.612Z,39.87
2019-03-17T09:00:21.273Z,39.81
2019-03-17T09:02:51.716Z,39.87
2019-03-17T09:05:22.205Z,39.91
2019-03-17T09:07:52.885Z,39.94
2019-03-17T09:10:23.475Z,40.04
2019-03-17T09:12:54.018Z,40.00
2019-03-17T09:15:24.644Z,40.01
2019-03-17T09:17:55.402Z,39.95
2019-03-17T09:20:26.245Z,40.00
2019-03-17T09:22:57.085Z,39.87
2019-03-17T09:25:27.542Z,39.98
2019-03-17T09:27:58.674Z,39.96
2019-03-17T09:30:29.001Z,39.80
2019-03-17T09:32:59.991Z,39.80
2019-03-17T09:35:30.328Z,39.77
2019-03-17T09:38:03.923Z,39.76
2019-03-17T09:40:34.379Z,39.26
2019-03-17T09:43:05.699Z,38.82
2019-03-17T09:45:36.243Z,39.09
2019-03-17T09:48:06.646Z,39.23
2019-03-17T09:50:37.241Z,39.31
2019-03-17T09:53:07.732Z,39.38
2019-03-17T09:55:38.625Z,39.23
2019-03-17T09:58:09.180Z,39.05
2019-03-17T10:00:40.137Z,39.02
2019-03-17T10:03:10.801Z,39.01
2019-03-17T10:05:41.386Z,39.06
2019-03-17T10:08:11.989Z,39.13
2019-03-17T10:10:42.418Z,39.18
2019-03-17T10:13:13.210Z,38.97
2019-03-17T10:15:43.892Z,38.97
2019-03-17T10:18:15.040Z,39.50
2019-03-17T10:20:46.682Z,39.99
2019-03-17T10:23:17.400Z,40.14
2019-03-17T10:25:48.083Z,40.55
2019-03-17T10:28:18.634Z,40.96
2019-03-17T10:30:50.758Z,41.10
2019-03-17T10:33:21.214Z,41.28
2019-03-17T10:35:52.983Z,41.11
2019-03-17T10:38:23.847Z,41.17
2019-03-17T10:40:54.230Z,41.10
2019-03-17T10:43:24.748Z,41.10
2019-03-17T10:45:55.539Z,40.96
2019-03-17T10:48:25.950Z,40.97
2019-03-17T10:50:56.314Z,40.82
2019-03-17T10:53:26.703Z,40.70
2019-03-17T10:55:58.254Z,40.69
2019-03-17T10:58:28.765Z,40.80
2019-03-17T11:00:59.478Z,40.73
2019-03-17T11:03:29.837Z,40.76
2019-03-17T11:06:01.857Z,40.74
2019-03-17T11:08:33.576Z,40.64
2019-03-17T11:11:04.080Z,40.71
2019-03-17T11:13:34.361Z,40.70
2019-03-17T11:16:04.925Z,40.71
2019-03-17T11:18:35.574Z,41.09
2019-03-17T11:21:06.284Z,41.21
2019-03-17T11:23:36.696Z,41.19
2019-03-17T11:26:07.043Z,41.38
2019-03-17T11:28:37.551Z,42.07
2019-03-17T11:31:07.985Z,42.32
2019-03-17T11:33:38.347Z,42.57
2019-03-17T11:36:12.348Z,43.09
2019-03-17T11:38:43.564Z,42.81
2019-03-17T11:41:13.903Z,42.53
2019-03-17T11:43:44.363Z,41.96
2019-03-17T11:46:14.765Z,40.98
2019-03-17T11:48:45.531Z,40.52
2019-03-17T11:51:15.892Z,40.98
2019-03-17T11:53:46.455Z,41.15
2019-03-17T11:56:18.242Z,41.33
2019-03-17T11:58:49.403Z,41.55
2019-03-17T12:01:19.775Z,41.68
2019-03-17T12:03:50.138Z,41.65
2019-03-17T12:06:20.531Z,40.22
2019-03-17T12:08:50.851Z,38.90
2019-03-17T12:11:21.262Z,38.44
2019-03-17T12:13:51.504Z,38.51
2019-03-17T12:16:21.921Z,38.18
2019-03-17T12:18:52.239Z,38.32
2019-03-17T12:21:23.342Z,37.04
2019-03-17T12:23:53.503Z,36.46
2019-03-17T12:26:23.722Z,36.04
2019-03-17T12:28:53.940Z,35.75
2019-03-17T12:31:24.110Z,36.41
2019-03-17T12:33:54.305Z,36.34
2019-03-17T12:36:24.477Z,36.09
2019-03-17T12:38:55.354Z,35.55
2019-03-17T12:41:25.720Z,35.46
2019-03-17T12:43:55.931Z,36.03
2019-03-17T12:46:26.281Z,35.56
2019-03-17T12:48:56.906Z,35.94
2019-03-17T12:51:27.375Z,35.96
2019-03-17T12:53:57.702Z,35.89
2019-03-17T12:56:28.179Z,36.14
2019-03-17T12:58:58.721Z,36.01
2019-03-17T13:01:29.185Z,35.74
2019-03-17T13:03:59.707Z,35.85
2019-03-17T13:06:30.250Z,36.23
2019-03-17T13:09:01.173Z,36.30
2019-03-17T13:11:33.275Z,36.44
2019-03-17T13:14:02.677Z,36.32
2019-03-17T13:16:31.908Z,36.33
2019-03-17T13:19:01.500Z,36.82
2019-03-17T13:21:31.989Z,36.92
2019-03-17T13:24:02.684Z,37.02
2019-03-17T13:26:33.243Z,37.03
2019-03-17T13:29:03.620Z,37.25
2019-03-17T13:31:34.187Z,37.34
2019-03-17T13:34:04.584Z,37.50
2019-03-17T13:36:35.262Z,37.68
2019-03-17T13:39:08.111Z,37.63
2019-03-17T13:41:38.485Z,37.60
2019-03-17T13:44:09.038Z,37.34
2019-03-17T13:46:39.576Z,36.87
2019-03-17T13:49:09.914Z,36.60
2019-03-17T13:51:40.457Z,37.27
2019-03-17T13:54:10.789Z,37.28
2019-03-17T13:56:41.291Z,37.24
2019-03-17T13:59:11.735Z,37.45
2019-03-17T14:01:42.118Z,37.85
2019-03-17T14:04:12.347Z,37.96
2019-03-17T14:06:42.617Z,37.41
2019-03-17T14:09:12.884Z,37.45
2019-03-17T14:11:43.216Z,37.14
2019-03-17T14:14:13.623Z,37.44
2019-03-17T14:16:43.902Z,37.64
2019-03-17T14:19:14.158Z,37.67
2019-03-17T14:21:44.526Z,37.64
2019-03-17T14:24:15.770Z,37.52
2019-03-17T14:26:46.125Z,37.76
2019-03-17T14:29:16.496Z,37.56
2019-03-17T14:31:46.801Z,37.32
2019-03-17T14:34:17.101Z,37.23
2019-03-17T14:36:47.458Z,37.37
2019-03-17T14:39:17.857Z,37.62
2019-03-17T14:41:48.193Z,37.63
2019-03-17T14:44:18.579Z,37.99
2019-03-17T14:46:48.855Z,37.81
2019-03-17T14:49:19.174Z,37.96
2019-03-17T14:51:49.478Z,38.02
2019-03-17T14:54:19.741Z,37.98
2019-03-17T14:56:50.132Z,37.90
2019-03-17T14:59:20.363Z,38.00
2019-03-17T15:01:50.659Z,37.90
2019-03-17T15:04:20.946Z,37.86
2019-03-17T15:06:52.311Z,37.90
2019-03-17T15:09:22.622Z,37.90
2019-03-17T15:11:52.956Z,37.99
2019-03-17T15:14:23.242Z,37.97
2019-03-17T15:16:53.546Z,37.89
2019-03-17T15:19:23.868Z,37.93
2019-03-17T15:21:54.195Z,37.92
2019-03-17T15:24:24.487Z,37.93
2019-03-17T15:26:54.787Z,37.88
2019-03-17T15:29:26.127Z,37.70
2019-03-17T15:31:56.486Z,37.68
2019-03-17T15:34:27.078Z,37.60
2019-03-17T15:36:57.476Z,37.28
2019-03-17T15:39:27.753Z,37.61
2019-03-17T15:41:58.014Z,37.28
2019-03-17T15:44:28.375Z,37.02
2019-03-17T15:46:58.715Z,36.85
2019-03-17T15:49:28.915Z,36.71
2019-03-17T15:51:59.263Z,36.85
2019-03-17T15:54:29.578Z,36.91
2019-03-17T15:57:01.500Z,36.98
2019-03-17T15:59:31.800Z,37.08
2019-03-17T16:02:02.139Z,37.26
2019-03-17T16:04:33.424Z,37.46
2019-03-17T16:07:03.769Z,37.50
2019-03-17T16:09:34.022Z,37.61
2019-03-17T16:12:04.340Z,37.66
2019-03-17T16:14:36.658Z,37.85
2019-03-17T16:17:07.028Z,37.82
2019-03-17T16:19:37.633Z,35.97
2019-03-17T16:22:07.891Z,34.61
2019-03-17T16:24:38.183Z,33.86
2019-03-17T16:29:37.436Z,33.86
2019-03-17T16:32:07.744Z,33.97
2019-03-17T16:34:37.949Z,34.29
2019-03-17T16:37:08.292Z,35.37
2019-03-17T16:39:38.686Z,35.21
2019-03-17T16:42:10.066Z,34.58
2019-03-17T16:44:40.332Z,34.79
2019-03-17T16:47:10.598Z,34.49
2019-03-17T16:49:41.010Z,35.59
2019-03-17T16:52:11.292Z,36.25
2019-03-17T16:54:41.643Z,36.27
2019-03-17T16:57:12.035Z,36.08
2019-03-17T16:59:42.334Z,36.26
2019-03-17T17:02:12.626Z,36.03
2019-03-17T17:04:42.938Z,35.59
2019-03-17T17:07:13.383Z,35.73
2019-03-17T17:09:43.738Z,35.97
2019-03-17T17:12:14.090Z,35.65
2019-03-17T17:14:44.400Z,35.35
2019-03-17T17:17:14.747Z,35.78
2019-03-17T17:19:44.992Z,36.06
2019-03-17T17:22:16.678Z,36.47
2019-03-17T17:24:47.017Z,36.84
2019-03-17T17:27:18.400Z,36.91
2019-03-17T17:29:49.445Z,37.04
2019-03-17T17:32:19.674Z,36.93
2019-03-17T17:34:50.051Z,37.06
2019-03-17T17:37:20.430Z,37.28
2019-03-17T17:39:50.808Z,37.36
2019-03-17T17:44:52.277Z,36.67
2019-03-17T17:47:22.547Z,36.51
2019-03-17T17:49:52.908Z,36.82
2019-03-17T17:52:23.422Z,35.83
2019-03-17T17:54:53.799Z,35.16
2019-03-17T17:57:24.109Z,34.93
2019-03-17T17:59:54.370Z,34.66
2019-03-17T18:02:24.723Z,35.26
2019-03-17T18:04:55.590Z,34.99
2019-03-17T18:07:25.967Z,35.50
2019-03-17T18:09:56.624Z,36.06
2019-03-17T18:12:27.669Z,36.05
2019-03-17T18:14:57.981Z,36.22
2019-03-17T18:17:28.977Z,36.76
2019-03-17T18:19:59.372Z,37.06
2019-03-17T18:22:30.099Z,35.28
2019-03-17T18:25:00.440Z,34.91
2019-03-17T18:27:31.222Z,35.31
2019-03-17T18:30:02.059Z,35.34
2019-03-17T18:32:32.474Z,35.18
2019-03-17T18:35:04.403Z,34.99
2019-03-17T18:37:35.760Z,35.23
2019-03-17T18:40:06.640Z,35.17
2019-03-17T18:42:36.923Z,35.38
2019-03-17T18:45:07.594Z,35.28
2019-03-17T18:47:37.940Z,35.20
2019-03-17T18:52:39.110Z,36.71
2019-03-17T18:55:11.278Z,37.06
2019-03-17T18:57:41.567Z,37.81
2019-03-17T19:00:14.352Z,37.72
2019-03-17T19:05:14.354Z,38.16
2019-03-17T19:07:44.841Z,38.35
2019-03-17T19:10:15.716Z,38.47
2019-03-17T19:12:46.463Z,38.58
2019-03-17T19:15:17.471Z,38.71
2019-03-17T19:17:47.800Z,38.75
2019-03-17T19:20:18.100Z,38.83
2019-03-17T19:22:48.870Z,38.84
2019-03-17T19:25:19.225Z,38.72
2019-03-17T19:27:49.637Z,38.71
2019-03-17T19:30:20.082Z,38.73
2019-03-17T19:32:52.058Z,38.70
2019-03-17T19:35:22.496Z,38.39
2019-03-17T19:37:54.799Z,38.27
2019-03-17T19:40:25.129Z,38.30
2019-03-17T19:42:59.251Z,38.40
2019-03-17T19:45:27.427Z,38.47
2019-03-17T19:47:58.731Z,39.12
2019-03-17T19:50:29.394Z,38.67
2019-03-17T19:52:59.574Z,38.51
2019-03-17T19:55:29.895Z,39.46
2019-03-17T19:58:00.194Z,39.47
2019-03-17T20:00:34.321Z,39.37
2019-03-17T20:03:04.571Z,39.17
2019-03-17T20:05:35.231Z,39.05
2019-03-17T20:08:05.588Z,38.65
2019-03-17T20:10:36.370Z,38.55
2019-03-17T20:13:11.874Z,38.52
2019-03-17T20:15:44.181Z,38.75
2019-03-17T20:18:14.430Z,38.90
2019-03-17T20:20:45.110Z,39.21
2019-03-17T20:23:16.821Z,38.97
2019-03-17T20:25:47.374Z,39.13
2019-03-17T20:28:17.799Z,38.95
2019-03-17T20:30:50.235Z,39.09
2019-03-17T20:33:22.286Z,39.22
2019-03-17T20:35:56.917Z,39.13
2019-03-17T20:38:28.360Z,39.21
2019-03-17T20:41:00.286Z,39.22
2019-03-17T20:43:35.405Z,39.21
2019-03-17T20:46:03.691Z,39.20
2019-03-17T20:48:34.085Z,39.22
2019-03-17T20:51:04.360Z,39.47
2019-03-17T20:53:34.660Z,39.46
2019-03-17T20:56:06.457Z,39.67
2019-03-17T20:58:43.806Z,39.86
2019-03-17T21:01:14.356Z,40.30
2019-03-17T21:03:45.252Z,40.92
2019-03-17T21:06:16.073Z,41.26
2019-03-17T21:08:46.849Z,41.56
2019-03-17T21:11:17.221Z,41.66
2019-03-17T21:13:47.488Z,42.00
2019-03-17T21:16:17.849Z,41.79
2019-03-17T21:18:48.263Z,42.01
2019-03-17T21:21:18.660Z,41.95
2019-03-17T21:23:48.948Z,42.46
2019-03-17T21:26:19.221Z,42.22
2019-03-17T21:28:49.603Z,42.30
2019-03-17T21:31:19.837Z,42.24
2019-03-17T21:33:50.190Z,42.31
2019-03-17T21:36:20.477Z,42.43
2019-03-17T21:38:51.807Z,42.38
2019-03-17T21:41:22.233Z,42.24
2019-03-17T21:43:59.299Z,42.35
2019-03-17T21:46:24.477Z,42.51
2019-03-17T21:48:54.736Z,42.37
2019-03-17T21:51:25.133Z,42.49
2019-03-17T21:53:55.454Z,42.58
2019-03-17T21:56:25.835Z,42.51
2019-03-17T21:58:56.165Z,42.67
2019-03-17T22:01:26.557Z,42.52
2019-03-17T22:03:56.933Z,42.61
2019-03-17T22:06:27.235Z,42.66
2019-03-17T22:08:57.560Z,42.42
2019-03-17T22:11:27.941Z,42.61
2019-03-17T22:13:58.285Z,42.65
2019-03-17T22:16:29.754Z,42.71
2019-03-17T22:19:00.322Z,42.57
2019-03-17T22:21:30.653Z,42.72
2019-03-17T22:24:00.967Z,42.83
2019-03-17T22:26:31.276Z,42.82
2019-03-17T22:29:01.647Z,42.66
2019-03-17T22:31:31.984Z,42.80
2019-03-17T22:34:02.222Z,42.78
2019-03-17T22:36:33.566Z,42.79
2019-03-17T22:39:04.304Z,42.80
2019-03-17T22:41:34.631Z,42.89
2019-03-17T22:44:04.944Z,42.85
2019-03-17T22:46:35.607Z,42.82
2019-03-17T22:49:06.219Z,42.83
2019-03-17T22:51:36.569Z,42.85
2019-03-17T22:54:06.789Z,42.83
2019-03-17T22:56:37.046Z,42.91
2019-03-17T22:59:07.408Z,42.83
2019-03-17T23:01:38.719Z,42.81
2019-03-17T23:04:09.113Z,42.78
2019-03-17T23:06:39.559Z,42.76
2019-03-17T23:09:10.005Z,42.90
2019-03-17T23:11:40.308Z,42.83
2019-03-17T23:14:12.203Z,42.91
2019-03-17T23:16:42.431Z,42.69
2019-03-17T23:19:13.058Z,42.83
2019-03-17T23:21:43.335Z,42.92
2019-03-17T23:24:13.743Z,42.91
2019-03-17T23:26:44.112Z,42.88
2019-03-17T23:29:14.380Z,42.74
2019-03-17T23:31:44.742Z,42.78
2019-03-17T23:34:15.037Z,42.85
2019-03-17T23:36:45.340Z,43.00
2019-03-17T23:39:15.614Z,42.96
2019-03-17T23:41:45.926Z,43.05
2019-03-17T23:44:16.260Z,43.08
2019-03-17T23:46:46.477Z,43.08
2019-03-17T23:49:16.874Z,42.91
2019-03-17T23:51:47.447Z,43.05
2019-03-17T23:54:17.991Z,43.12
2019-03-17T23:56:48.249Z,43.13
2019-03-17T23:59:18.590Z,43.06
